sensor_id;sensor_type;location;lat;lon;timestamp;P1;durP1;ratioP1;P2;durP2;ratioP2
55732;SDS011;41637;52.364;9.910;2023-04-02T00:07:41;7.80;;;3.10;;
55732;SDS011;41637;52.364;9.910;2023-04-02T00:15:36;7.10;;;3.10;;
55732;SDS011;41637;52.364;9.910;2023-04-02T00:18:04;6.40;;;2.80;;
55732;SDS011;41637;52.364;9.910;2023-04-02T00:20:33;5.10;;;2.40;;
55732;SDS011;41637;52.364;9.910;2023-04-02T00:23:04;7.40;;;2.90;;
55732;SDS011;41637;52.364;9.910;2023-04-02T00:25:33;6.20;;;2.60;;
55732;SDS011;41637;52.364;9.910;2023-04-02T00:28:03;5.80;;;2.80;;
55732;SDS011;41637;52.364;9.910;2023-04-02T00:30:30;7.50;;;3.20;;
55732;SDS011;41637;52.364;9.910;2023-04-02T00:32:57;6.60;;;2.90;;
55732;SDS011;41637;52.364;9.910;2023-04-02T00:35:25;7.30;;;2.60;;
55732;SDS011;41637;52.364;9.910;2023-04-02T00:37:54;6.70;;;2.80;;
55732;SDS011;41637;52.364;9.910;2023-04-02T00:40:23;5.70;;;2.60;;
55732;SDS011;41637;52.364;9.910;2023-04-02T00:42:53;5.90;;;2.80;;
55732;SDS011;41637;52.364;9.910;2023-04-02T00:45:27;6.70;;;3.00;;
55732;SDS011;41637;52.364;9.910;2023-04-02T00:47:57;4.90;;;2.40;;
55732;SDS011;41637;52.364;9.910;2023-04-02T00:50:27;6.00;;;2.50;;
55732;SDS011;41637;52.364;9.910;2023-04-02T00:52:59;5.60;;;2.40;;
55732;SDS011;41637;52.364;9.910;2023-04-02T00:55:35;6.70;;;2.20;;
55732;SDS011;41637;52.364;9.910;2023-04-02T00:58:22;5.80;;;2.30;;
55732;SDS011;41637;52.364;9.910;2023-04-02T01:00:52;7.00;;;2.50;;
55732;SDS011;41637;52.364;9.910;2023-04-02T01:05:55;5.80;;;2.40;;
55732;SDS011;41637;52.364;9.910;2023-04-02T01:21:48;8.10;;;2.50;;
55732;SDS011;41637;52.364;9.910;2023-04-02T01:24:20;5.30;;;2.20;;
55732;SDS011;41637;52.364;9.910;2023-04-02T01:26:53;5.00;;;2.00;;
55732;SDS011;41637;52.364;9.910;2023-04-02T01:29:40;5.10;;;2.20;;
55732;SDS011;41637;52.364;9.910;2023-04-02T01:32:28;4.10;;;2.10;;
55732;SDS011;41637;52.364;9.910;2023-04-02T01:34:55;5.60;;;2.00;;
55732;SDS011;41637;52.364;9.910;2023-04-02T01:37:30;5.00;;;2.00;;
55732;SDS011;41637;52.364;9.910;2023-04-02T01:45:51;4.60;;;1.80;;
55732;SDS011;41637;52.364;9.910;2023-04-02T01:48:21;6.10;;;2.00;;
55732;SDS011;41637;52.364;9.910;2023-04-02T01:50:50;5.00;;;2.10;;
55732;SDS011;41637;52.364;9.910;2023-04-02T01:53:20;6.10;;;2.00;;
55732;SDS011;41637;52.364;9.910;2023-04-02T01:55:51;5.10;;;1.90;;
55732;SDS011;41637;52.364;9.910;2023-04-02T01:58:23;5.50;;;1.90;;
55732;SDS011;41637;52.364;9.910;2023-04-02T02:03:23;4.10;;;1.60;;
55732;SDS011;41637;52.364;9.910;2023-04-02T02:05:50;5.20;;;1.80;;
55732;SDS011;41637;52.364;9.910;2023-04-02T02:11:41;4.20;;;1.60;;
55732;SDS011;41637;52.364;9.910;2023-04-02T02:14:16;3.70;;;1.50;;
55732;SDS011;41637;52.364;9.910;2023-04-02T02:16:46;3.70;;;1.60;;
55732;SDS011;41637;52.364;9.910;2023-04-02T02:21:47;4.00;;;1.50;;
55732;SDS011;41637;52.364;9.910;2023-04-02T02:24:30;5.40;;;1.70;;
55732;SDS011;41637;52.364;9.910;2023-04-02T02:29:36;5.00;;;1.60;;
55732;SDS011;41637;52.364;9.910;2023-04-02T02:32:08;5.40;;;1.70;;
55732;SDS011;41637;52.364;9.910;2023-04-02T02:34:42;4.20;;;1.70;;
55732;SDS011;41637;52.364;9.910;2023-04-02T02:37:18;4.40;;;1.60;;
55732;SDS011;41637;52.364;9.910;2023-04-02T02:39:52;5.10;;;1.60;;
55732;SDS011;41637;52.364;9.910;2023-04-02T02:45:24;5.50;;;1.50;;
55732;SDS011;41637;52.364;9.910;2023-04-02T02:47:55;4.20;;;1.40;;
55732;SDS011;41637;52.364;9.910;2023-04-02T02:50:27;5.40;;;1.90;;
55732;SDS011;41637;52.364;9.910;2023-04-02T02:52:58;4.60;;;1.40;;
55732;SDS011;41637;52.364;9.910;2023-04-02T02:55:35;3.80;;;1.60;;
55732;SDS011;41637;52.364;9.910;2023-04-02T02:58:04;4.70;;;1.60;;
55732;SDS011;41637;52.364;9.910;2023-04-02T03:00:44;5.00;;;1.70;;
55732;SDS011;41637;52.364;9.910;2023-04-02T03:03:16;4.60;;;1.60;;
55732;SDS011;41637;52.364;9.910;2023-04-02T03:06:03;6.80;;;1.80;;
55732;SDS011;41637;52.364;9.910;2023-04-02T03:08:35;4.50;;;1.60;;
55732;SDS011;41637;52.364;9.910;2023-04-02T03:11:11;5.80;;;1.80;;
55732;SDS011;41637;52.364;9.910;2023-04-02T03:13:48;5.60;;;1.70;;
55732;SDS011;41637;52.364;9.910;2023-04-02T03:16:17;6.50;;;2.00;;
55732;SDS011;41637;52.364;9.910;2023-04-02T03:21:23;3.40;;;1.70;;
55732;SDS011;41637;52.364;9.910;2023-04-02T03:24:19;4.70;;;1.90;;
55732;SDS011;41637;52.364;9.910;2023-04-02T03:26:59;3.80;;;1.80;;
55732;SDS011;41637;52.364;9.910;2023-04-02T03:29:33;5.70;;;2.10;;
55732;SDS011;41637;52.364;9.910;2023-04-02T03:32:04;3.30;;;1.90;;
55732;SDS011;41637;52.364;9.910;2023-04-02T03:34:40;4.50;;;1.70;;
55732;SDS011;41637;52.364;9.910;2023-04-02T03:37:14;4.80;;;1.70;;
55732;SDS011;41637;52.364;9.910;2023-04-02T03:39:47;4.60;;;1.70;;
55732;SDS011;41637;52.364;9.910;2023-04-02T03:42:26;3.90;;;1.70;;
55732;SDS011;41637;52.364;9.910;2023-04-02T03:45:09;3.60;;;1.40;;
55732;SDS011;41637;52.364;9.910;2023-04-02T03:47:43;3.30;;;1.50;;
55732;SDS011;41637;52.364;9.910;2023-04-02T03:50:24;5.00;;;1.50;;
55732;SDS011;41637;52.364;9.910;2023-04-02T03:52:57;4.00;;;1.70;;
55732;SDS011;41637;52.364;9.910;2023-04-02T03:55:27;3.40;;;1.50;;
55732;SDS011;41637;52.364;9.910;2023-04-02T03:58:00;4.90;;;1.70;;
55732;SDS011;41637;52.364;9.910;2023-04-02T04:00:39;3.50;;;1.20;;
55732;SDS011;41637;52.364;9.910;2023-04-02T04:03:17;3.30;;;1.40;;
55732;SDS011;41637;52.364;9.910;2023-04-02T04:05:51;4.50;;;1.60;;
55732;SDS011;41637;52.364;9.910;2023-04-02T04:08:23;3.60;;;1.40;;
55732;SDS011;41637;52.364;9.910;2023-04-02T04:10:56;4.70;;;1.60;;
55732;SDS011;41637;52.364;9.910;2023-04-02T04:13:32;2.70;;;1.40;;
55732;SDS011;41637;52.364;9.910;2023-04-02T04:16:07;4.40;;;1.50;;
55732;SDS011;41637;52.364;9.910;2023-04-02T04:21:30;3.10;;;1.40;;
55732;SDS011;41637;52.364;9.910;2023-04-02T04:24:03;4.60;;;1.70;;
55732;SDS011;41637;52.364;9.910;2023-04-02T04:26:48;3.90;;;1.40;;
55732;SDS011;41637;52.364;9.910;2023-04-02T04:34:58;3.10;;;1.20;;
55732;SDS011;41637;52.364;9.910;2023-04-02T04:37:33;4.80;;;1.30;;
55732;SDS011;41637;52.364;9.910;2023-04-02T04:40:12;4.40;;;1.50;;
55732;SDS011;41637;52.364;9.910;2023-04-02T04:42:46;5.50;;;1.20;;
55732;SDS011;41637;52.364;9.910;2023-04-02T04:47:58;3.00;;;1.20;;
55732;SDS011;41637;52.364;9.910;2023-04-02T04:53:26;3.40;;;1.20;;
55732;SDS011;41637;52.364;9.910;2023-04-02T04:55:55;5.10;;;1.50;;
55732;SDS011;41637;52.364;9.910;2023-04-02T05:04:23;3.20;;;1.20;;
55732;SDS011;41637;52.364;9.910;2023-04-02T05:07:06;5.10;;;1.40;;
55732;SDS011;41637;52.364;9.910;2023-04-02T05:10:26;4.40;;;1.30;;
55732;SDS011;41637;52.364;9.910;2023-04-02T05:13:00;3.50;;;1.20;;
55732;SDS011;41637;52.364;9.910;2023-04-02T05:15:40;3.70;;;1.20;;
55732;SDS011;41637;52.364;9.910;2023-04-02T05:18:21;3.20;;;1.00;;
55732;SDS011;41637;52.364;9.910;2023-04-02T05:23:26;3.80;;;1.20;;
55732;SDS011;41637;52.364;9.910;2023-04-02T05:31:23;3.10;;;1.10;;
55732;SDS011;41637;52.364;9.910;2023-04-02T05:33:53;3.80;;;1.20;;
55732;SDS011;41637;52.364;9.910;2023-04-02T05:36:23;3.80;;;1.30;;
55732;SDS011;41637;52.364;9.910;2023-04-02T05:38:53;3.70;;;1.40;;
55732;SDS011;41637;52.364;9.910;2023-04-02T05:41:25;2.80;;;1.00;;
55732;SDS011;41637;52.364;9.910;2023-04-02T05:44:11;3.30;;;1.20;;
55732;SDS011;41637;52.364;9.910;2023-04-02T05:52:23;2.70;;;1.20;;
55732;SDS011;41637;52.364;9.910;2023-04-02T05:55:01;3.30;;;1.00;;
55732;SDS011;41637;52.364;9.910;2023-04-02T05:57:43;3.30;;;1.10;;
55732;SDS011;41637;52.364;9.910;2023-04-02T06:03:13;3.60;;;1.10;;
55732;SDS011;41637;52.364;9.910;2023-04-02T06:05:49;2.60;;;1.20;;
55732;SDS011;41637;52.364;9.910;2023-04-02T06:08:23;2.70;;;0.90;;
55732;SDS011;41637;52.364;9.910;2023-04-02T06:13:37;3.60;;;1.20;;
55732;SDS011;41637;52.364;9.910;2023-04-02T06:16:09;3.30;;;1.30;;
55732;SDS011;41637;52.364;9.910;2023-04-02T06:18:40;3.90;;;1.30;;
55732;SDS011;41637;52.364;9.910;2023-04-02T06:21:07;4.60;;;1.10;;
55732;SDS011;41637;52.364;9.910;2023-04-02T06:28:48;3.40;;;1.30;;
55732;SDS011;41637;52.364;9.910;2023-04-02T06:31:33;3.30;;;1.20;;
55732;SDS011;41637;52.364;9.910;2023-04-02T06:34:04;3.40;;;1.00;;
55732;SDS011;41637;52.364;9.910;2023-04-02T06:36:39;3.40;;;1.30;;
55732;SDS011;41637;52.364;9.910;2023-04-02T06:39:07;3.40;;;1.20;;
55732;SDS011;41637;52.364;9.910;2023-04-02T06:41:42;4.90;;;1.30;;
55732;SDS011;41637;52.364;9.910;2023-04-02T06:44:11;5.10;;;1.40;;
55732;SDS011;41637;52.364;9.910;2023-04-02T06:46:44;2.50;;;1.00;;
55732;SDS011;41637;52.364;9.910;2023-04-02T06:49:22;3.70;;;1.10;;
55732;SDS011;41637;52.364;9.910;2023-04-02T06:52:04;4.10;;;1.70;;
55732;SDS011;41637;52.364;9.910;2023-04-02T06:54:39;4.80;;;1.30;;
55732;SDS011;41637;52.364;9.910;2023-04-02T06:57:05;4.60;;;1.20;;
55732;SDS011;41637;52.364;9.910;2023-04-02T06:59:33;3.50;;;1.20;;
55732;SDS011;41637;52.364;9.910;2023-04-02T07:02:00;3.20;;;1.20;;
55732;SDS011;41637;52.364;9.910;2023-04-02T07:04:31;3.10;;;1.30;;
55732;SDS011;41637;52.364;9.910;2023-04-02T07:06:59;3.40;;;1.50;;
55732;SDS011;41637;52.364;9.910;2023-04-02T07:09:26;3.10;;;1.30;;
55732;SDS011;41637;52.364;9.910;2023-04-02T07:11:52;4.40;;;1.30;;
55732;SDS011;41637;52.364;9.910;2023-04-02T07:14:19;3.30;;;1.20;;
55732;SDS011;41637;52.364;9.910;2023-04-02T07:16:45;5.60;;;1.50;;
55732;SDS011;41637;52.364;9.910;2023-04-02T07:19:15;2.80;;;1.40;;
55732;SDS011;41637;52.364;9.910;2023-04-02T07:21:46;2.70;;;1.20;;
55732;SDS011;41637;52.364;9.910;2023-04-02T07:24:13;3.40;;;1.20;;
55732;SDS011;41637;52.364;9.910;2023-04-02T07:26:40;5.50;;;1.50;;
55732;SDS011;41637;52.364;9.910;2023-04-02T07:29:08;3.50;;;1.20;;
55732;SDS011;41637;52.364;9.910;2023-04-02T07:31:39;2.70;;;1.20;;
55732;SDS011;41637;52.364;9.910;2023-04-02T07:34:06;2.70;;;1.10;;
55732;SDS011;41637;52.364;9.910;2023-04-02T07:36:34;3.00;;;1.20;;
55732;SDS011;41637;52.364;9.910;2023-04-02T07:39:00;3.30;;;1.20;;
55732;SDS011;41637;52.364;9.910;2023-04-02T07:41:28;3.40;;;1.30;;
55732;SDS011;41637;52.364;9.910;2023-04-02T07:43:54;5.50;;;1.30;;
55732;SDS011;41637;52.364;9.910;2023-04-02T07:46:21;3.90;;;1.40;;
55732;SDS011;41637;52.364;9.910;2023-04-02T07:48:48;4.70;;;1.20;;
55732;SDS011;41637;52.364;9.910;2023-04-02T07:51:18;3.30;;;1.10;;
55732;SDS011;41637;52.364;9.910;2023-04-02T07:53:47;4.20;;;1.10;;
55732;SDS011;41637;52.364;9.910;2023-04-02T07:56:22;3.30;;;1.20;;
55732;SDS011;41637;52.364;9.910;2023-04-02T07:58:50;3.20;;;1.10;;
55732;SDS011;41637;52.364;9.910;2023-04-02T08:01:18;4.40;;;1.30;;
55732;SDS011;41637;52.364;9.910;2023-04-02T08:03:49;2.50;;;1.00;;
55732;SDS011;41637;52.364;9.910;2023-04-02T08:06:19;4.50;;;1.20;;
55732;SDS011;41637;52.364;9.910;2023-04-02T08:08:46;2.40;;;1.10;;
55732;SDS011;41637;52.364;9.910;2023-04-02T08:11:12;3.10;;;1.20;;
55732;SDS011;41637;52.364;9.910;2023-04-02T08:13:39;3.20;;;1.00;;
55732;SDS011;41637;52.364;9.910;2023-04-02T08:16:06;3.20;;;0.90;;
55732;SDS011;41637;52.364;9.910;2023-04-02T08:18:34;3.20;;;1.20;;
55732;SDS011;41637;52.364;9.910;2023-04-02T08:21:02;4.50;;;1.20;;
55732;SDS011;41637;52.364;9.910;2023-04-02T08:23:31;3.20;;;1.10;;
55732;SDS011;41637;52.364;9.910;2023-04-02T08:25:58;2.00;;;1.00;;
55732;SDS011;41637;52.364;9.910;2023-04-02T08:28:24;3.20;;;1.10;;
55732;SDS011;41637;52.364;9.910;2023-04-02T08:30:51;3.50;;;1.20;;
55732;SDS011;41637;52.364;9.910;2023-04-02T08:33:18;3.10;;;0.90;;
55732;SDS011;41637;52.364;9.910;2023-04-02T08:35:45;4.90;;;1.30;;
55732;SDS011;41637;52.364;9.910;2023-04-02T08:38:14;3.40;;;1.40;;
55732;SDS011;41637;52.364;9.910;2023-04-02T08:40:50;3.40;;;1.30;;
55732;SDS011;41637;52.364;9.910;2023-04-02T08:48:37;4.20;;;1.40;;
55732;SDS011;41637;52.364;9.910;2023-04-02T08:51:20;4.30;;;1.40;;
55732;SDS011;41637;52.364;9.910;2023-04-02T08:53:50;3.80;;;1.40;;
55732;SDS011;41637;52.364;9.910;2023-04-02T08:56:30;4.30;;;1.30;;
55732;SDS011;41637;52.364;9.910;2023-04-02T08:59:02;3.10;;;1.20;;
55732;SDS011;41637;52.364;9.910;2023-04-02T09:01:46;3.00;;;1.30;;
55732;SDS011;41637;52.364;9.910;2023-04-02T09:04:25;3.40;;;1.50;;
55732;SDS011;41637;52.364;9.910;2023-04-02T09:06:54;2.80;;;1.00;;
55732;SDS011;41637;52.364;9.910;2023-04-02T09:09:25;2.80;;;1.00;;
55732;SDS011;41637;52.364;9.910;2023-04-02T09:11:59;4.20;;;1.30;;
55732;SDS011;41637;52.364;9.910;2023-04-02T09:17:20;4.40;;;1.40;;
55732;SDS011;41637;52.364;9.910;2023-04-02T09:20:34;3.40;;;1.30;;
55732;SDS011;41637;52.364;9.910;2023-04-02T09:22:43;3.70;;;1.20;;
55732;SDS011;41637;52.364;9.910;2023-04-02T09:25:14;4.70;;;1.20;;
55732;SDS011;41637;52.364;9.910;2023-04-02T09:27:49;3.10;;;1.00;;
55732;SDS011;41637;52.364;9.910;2023-04-02T09:32:52;3.70;;;1.90;;
55732;SDS011;41637;52.364;9.910;2023-04-02T09:35:24;2.90;;;1.10;;
55732;SDS011;41637;52.364;9.910;2023-04-02T09:43:21;2.50;;;1.10;;
55732;SDS011;41637;52.364;9.910;2023-04-02T09:45:58;2.80;;;1.10;;
55732;SDS011;41637;52.364;9.910;2023-04-02T09:53:33;5.50;;;1.30;;
55732;SDS011;41637;52.364;9.910;2023-04-02T09:56:12;3.20;;;1.00;;
55732;SDS011;41637;52.364;9.910;2023-04-02T10:01:41;4.70;;;2.30;;
55732;SDS011;41637;52.364;9.910;2023-04-02T10:07:02;3.20;;;1.70;;
55732;SDS011;41637;52.364;9.910;2023-04-02T10:09:30;3.40;;;1.70;;
55732;SDS011;41637;52.364;9.910;2023-04-02T10:11:59;3.80;;;1.30;;
55732;SDS011;41637;52.364;9.910;2023-04-02T10:14:37;3.30;;;1.40;;
55732;SDS011;41637;52.364;9.910;2023-04-02T10:19:44;4.00;;;1.70;;
55732;SDS011;41637;52.364;9.910;2023-04-02T10:22:20;4.20;;;1.80;;
55732;SDS011;41637;52.364;9.910;2023-04-02T10:24:48;4.90;;;2.70;;
55732;SDS011;41637;52.364;9.910;2023-04-02T10:27:18;3.60;;;1.50;;
55732;SDS011;41637;52.364;9.910;2023-04-02T10:38:09;3.10;;;1.10;;
55732;SDS011;41637;52.364;9.910;2023-04-02T10:40:47;3.60;;;1.20;;
55732;SDS011;41637;52.364;9.910;2023-04-02T10:46:05;3.40;;;1.10;;
55732;SDS011;41637;52.364;9.910;2023-04-02T10:51:27;2.40;;;0.90;;
55732;SDS011;41637;52.364;9.910;2023-04-02T10:56:33;2.90;;;1.00;;
55732;SDS011;41637;52.364;9.910;2023-04-02T10:59:17;2.10;;;0.80;;
55732;SDS011;41637;52.364;9.910;2023-04-02T11:01:47;2.90;;;1.00;;
55732;SDS011;41637;52.364;9.910;2023-04-02T11:04:18;2.80;;;0.90;;
55732;SDS011;41637;52.364;9.910;2023-04-02T11:06:54;3.00;;;0.90;;
55732;SDS011;41637;52.364;9.910;2023-04-02T11:09:40;2.90;;;1.20;;
55732;SDS011;41637;52.364;9.910;2023-04-02T11:12:24;1.50;;;0.70;;
55732;SDS011;41637;52.364;9.910;2023-04-02T11:15:15;3.50;;;1.30;;
55732;SDS011;41637;52.364;9.910;2023-04-02T11:17:44;4.10;;;1.10;;
55732;SDS011;41637;52.364;9.910;2023-04-02T11:23:20;2.90;;;1.00;;
55732;SDS011;41637;52.364;9.910;2023-04-02T11:25:47;3.60;;;1.10;;
55732;SDS011;41637;52.364;9.910;2023-04-02T11:28:27;2.00;;;1.00;;
55732;SDS011;41637;52.364;9.910;2023-04-02T11:30:57;2.50;;;1.00;;
55732;SDS011;41637;52.364;9.910;2023-04-02T11:44:45;3.30;;;1.10;;
55732;SDS011;41637;52.364;9.910;2023-04-02T11:52:28;2.40;;;0.90;;
55732;SDS011;41637;52.364;9.910;2023-04-02T11:55:16;2.20;;;0.80;;
55732;SDS011;41637;52.364;9.910;2023-04-02T11:57:49;2.60;;;1.10;;
55732;SDS011;41637;52.364;9.910;2023-04-02T12:11:41;3.20;;;0.90;;
55732;SDS011;41637;52.364;9.910;2023-04-02T12:17:03;2.10;;;0.90;;
55732;SDS011;41637;52.364;9.910;2023-04-02T12:19:44;2.60;;;0.90;;
55732;SDS011;41637;52.364;9.910;2023-04-02T12:22:30;2.40;;;0.90;;
55732;SDS011;41637;52.364;9.910;2023-04-02T12:25:03;2.90;;;0.90;;
55732;SDS011;41637;52.364;9.910;2023-04-02T12:27:31;2.90;;;0.80;;
55732;SDS011;41637;52.364;9.910;2023-04-02T12:30:11;2.40;;;0.90;;
55732;SDS011;41637;52.364;9.910;2023-04-02T12:32:47;2.50;;;0.80;;
55732;SDS011;41637;52.364;9.910;2023-04-02T12:35:26;2.50;;;0.80;;
55732;SDS011;41637;52.364;9.910;2023-04-02T12:37:55;3.40;;;0.80;;
55732;SDS011;41637;52.364;9.910;2023-04-02T12:40:23;2.70;;;0.80;;
55732;SDS011;41637;52.364;9.910;2023-04-02T12:42:51;2.30;;;0.80;;
55732;SDS011;41637;52.364;9.910;2023-04-02T12:47:53;2.30;;;1.00;;
55732;SDS011;41637;52.364;9.910;2023-04-02T12:50:21;3.00;;;0.80;;
55732;SDS011;41637;52.364;9.910;2023-04-02T12:52:49;2.50;;;0.70;;
55732;SDS011;41637;52.364;9.910;2023-04-02T12:55:19;2.00;;;0.70;;
55732;SDS011;41637;52.364;9.910;2023-04-02T12:57:48;3.40;;;1.10;;
55732;SDS011;41637;52.364;9.910;2023-04-02T13:02:48;2.40;;;0.90;;
55732;SDS011;41637;52.364;9.910;2023-04-02T13:08:15;2.30;;;1.10;;
55732;SDS011;41637;52.364;9.910;2023-04-02T13:10:44;1.40;;;0.70;;
55732;SDS011;41637;52.364;9.910;2023-04-02T13:13:23;2.90;;;0.70;;
55732;SDS011;41637;52.364;9.910;2023-04-02T13:16:00;2.00;;;0.50;;
55732;SDS011;41637;52.364;9.910;2023-04-02T13:18:49;3.10;;;0.70;;
55732;SDS011;41637;52.364;9.910;2023-04-02T13:23:46;2.80;;;0.90;;
55732;SDS011;41637;52.364;9.910;2023-04-02T13:26:17;2.90;;;0.80;;
55732;SDS011;41637;52.364;9.910;2023-04-02T13:31:26;3.40;;;1.10;;
55732;SDS011;41637;52.364;9.910;2023-04-02T13:33:54;3.20;;;1.20;;
55732;SDS011;41637;52.364;9.910;2023-04-02T13:36:21;3.20;;;1.10;;
55732;SDS011;41637;52.364;9.910;2023-04-02T13:38:47;2.20;;;0.80;;
55732;SDS011;41637;52.364;9.910;2023-04-02T13:41:20;2.00;;;0.60;;
55732;SDS011;41637;52.364;9.910;2023-04-02T13:43:50;3.60;;;1.50;;
55732;SDS011;41637;52.364;9.910;2023-04-02T13:46:22;2.10;;;0.80;;
55732;SDS011;41637;52.364;9.910;2023-04-02T13:48:51;2.30;;;1.10;;
55732;SDS011;41637;52.364;9.910;2023-04-02T13:51:20;2.40;;;0.80;;
55732;SDS011;41637;52.364;9.910;2023-04-02T13:53:51;1.80;;;0.70;;
55732;SDS011;41637;52.364;9.910;2023-04-02T13:56:21;1.60;;;0.50;;
55732;SDS011;41637;52.364;9.910;2023-04-02T13:58:50;2.10;;;0.70;;
55732;SDS011;41637;52.364;9.910;2023-04-02T14:01:17;2.30;;;0.70;;
55732;SDS011;41637;52.364;9.910;2023-04-02T14:03:48;2.20;;;0.80;;
55732;SDS011;41637;52.364;9.910;2023-04-02T14:06:21;3.60;;;1.10;;
55732;SDS011;41637;52.364;9.910;2023-04-02T14:09:11;3.50;;;1.20;;
55732;SDS011;41637;52.364;9.910;2023-04-02T14:11:58;3.30;;;1.40;;
55732;SDS011;41637;52.364;9.910;2023-04-02T14:17:20;2.20;;;0.70;;
55732;SDS011;41637;52.364;9.910;2023-04-02T14:20:08;2.50;;;0.90;;
55732;SDS011;41637;52.364;9.910;2023-04-02T14:33:50;1.80;;;0.80;;
55732;SDS011;41637;52.364;9.910;2023-04-02T14:36:48;2.80;;;0.80;;
55732;SDS011;41637;52.364;9.910;2023-04-02T14:42:17;2.00;;;0.90;;
55732;SDS011;41637;52.364;9.910;2023-04-02T14:44:54;1.90;;;0.80;;
55732;SDS011;41637;52.364;9.910;2023-04-02T14:47:34;2.00;;;0.50;;
55732;SDS011;41637;52.364;9.910;2023-04-02T14:50:15;1.90;;;0.70;;
55732;SDS011;41637;52.364;9.910;2023-04-02T14:52:46;2.10;;;0.50;;
55732;SDS011;41637;52.364;9.910;2023-04-02T14:55:20;2.60;;;0.80;;
55732;SDS011;41637;52.364;9.910;2023-04-02T14:58:01;1.80;;;0.60;;
55732;SDS011;41637;52.364;9.910;2023-04-02T15:00:34;1.70;;;0.70;;
55732;SDS011;41637;52.364;9.910;2023-04-02T15:03:10;2.10;;;0.70;;
55732;SDS011;41637;52.364;9.910;2023-04-02T15:08:14;1.90;;;0.70;;
55732;SDS011;41637;52.364;9.910;2023-04-02T15:11:16;2.10;;;0.80;;
55732;SDS011;41637;52.364;9.910;2023-04-02T15:13:46;2.30;;;0.70;;
55732;SDS011;41637;52.364;9.910;2023-04-02T15:16:21;2.40;;;0.70;;
55732;SDS011;41637;52.364;9.910;2023-04-02T15:18:53;3.20;;;0.80;;
55732;SDS011;41637;52.364;9.910;2023-04-02T15:23:54;2.10;;;0.70;;
55732;SDS011;41637;52.364;9.910;2023-04-02T15:49:39;2.80;;;0.70;;
55732;SDS011;41637;52.364;9.910;2023-04-02T15:52:50;1.90;;;0.70;;
55732;SDS011;41637;52.364;9.910;2023-04-02T15:55:25;2.60;;;0.70;;
55732;SDS011;41637;52.364;9.910;2023-04-02T15:58:12;2.30;;;0.60;;
55732;SDS011;41637;52.364;9.910;2023-04-02T16:00:50;2.00;;;0.70;;
55732;SDS011;41637;52.364;9.910;2023-04-02T16:03:32;2.10;;;0.80;;
55732;SDS011;41637;52.364;9.910;2023-04-02T16:06:27;1.40;;;0.60;;
55732;SDS011;41637;52.364;9.910;2023-04-02T16:11:35;2.90;;;1.00;;
55732;SDS011;41637;52.364;9.910;2023-04-02T16:14:23;1.50;;;0.60;;
55732;SDS011;41637;52.364;9.910;2023-04-02T16:16:54;2.50;;;0.70;;
55732;SDS011;41637;52.364;9.910;2023-04-02T16:20:09;1.60;;;0.70;;
55732;SDS011;41637;52.364;9.910;2023-04-02T16:22:35;2.30;;;0.70;;
55732;SDS011;41637;52.364;9.910;2023-04-02T16:25:23;2.40;;;0.90;;
55732;SDS011;41637;52.364;9.910;2023-04-02T16:28:00;2.70;;;1.00;;
55732;SDS011;41637;52.364;9.910;2023-04-02T16:53:03;2.90;;;0.80;;
55732;SDS011;41637;52.364;9.910;2023-04-02T16:56:01;2.60;;;0.90;;
55732;SDS011;41637;52.364;9.910;2023-04-02T16:59:16;3.00;;;0.70;;
55732;SDS011;41637;52.364;9.910;2023-04-02T17:04:38;2.50;;;0.60;;
55732;SDS011;41637;52.364;9.910;2023-04-02T17:07:32;3.20;;;0.80;;
55732;SDS011;41637;52.364;9.910;2023-04-02T17:13:12;2.70;;;1.00;;
55732;SDS011;41637;52.364;9.910;2023-04-02T17:18:48;2.90;;;0.80;;
55732;SDS011;41637;52.364;9.910;2023-04-02T17:21:18;2.10;;;0.80;;
55732;SDS011;41637;52.364;9.910;2023-04-02T17:26:23;2.70;;;0.90;;
55732;SDS011;41637;52.364;9.910;2023-04-02T17:28:52;3.60;;;1.00;;
55732;SDS011;41637;52.364;9.910;2023-04-02T17:31:24;2.90;;;1.20;;
55732;SDS011;41637;52.364;9.910;2023-04-02T17:33:53;3.70;;;1.20;;
55732;SDS011;41637;52.364;9.910;2023-04-02T17:36:32;2.50;;;0.80;;
55732;SDS011;41637;52.364;9.910;2023-04-02T17:39:15;3.70;;;0.80;;
55732;SDS011;41637;52.364;9.910;2023-04-02T17:42:12;2.80;;;0.90;;
55732;SDS011;41637;52.364;9.910;2023-04-02T17:47:42;2.70;;;0.90;;
55732;SDS011;41637;52.364;9.910;2023-04-02T17:53:20;3.40;;;1.00;;
55732;SDS011;41637;52.364;9.910;2023-04-02T18:09:35;2.00;;;1.00;;
55732;SDS011;41637;52.364;9.910;2023-04-02T18:20:29;3.90;;;1.10;;
55732;SDS011;41637;52.364;9.910;2023-04-02T18:23:11;2.20;;;0.90;;
55732;SDS011;41637;52.364;9.910;2023-04-02T18:28:37;3.50;;;0.80;;
55732;SDS011;41637;52.364;9.910;2023-04-02T18:34:08;2.90;;;0.90;;
55732;SDS011;41637;52.364;9.910;2023-04-02T18:37:03;2.20;;;0.80;;
55732;SDS011;41637;52.364;9.910;2023-04-02T18:39:54;3.10;;;1.00;;
55732;SDS011;41637;52.364;9.910;2023-04-02T18:45:19;3.50;;;0.80;;
55732;SDS011;41637;52.364;9.910;2023-04-02T18:50:35;3.00;;;1.10;;
55732;SDS011;41637;52.364;9.910;2023-04-02T18:53:38;3.40;;;1.00;;
55732;SDS011;41637;52.364;9.910;2023-04-02T18:58:45;3.10;;;1.00;;
55732;SDS011;41637;52.364;9.910;2023-04-02T19:01:33;3.80;;;1.10;;
55732;SDS011;41637;52.364;9.910;2023-04-02T19:04:16;2.70;;;1.00;;
55732;SDS011;41637;52.364;9.910;2023-04-02T19:06:48;3.40;;;1.40;;
55732;SDS011;41637;52.364;9.910;2023-04-02T19:09:23;3.10;;;1.20;;
55732;SDS011;41637;52.364;9.910;2023-04-02T19:11:57;2.70;;;1.00;;
55732;SDS011;41637;52.364;9.910;2023-04-02T19:14:23;3.40;;;1.30;;
55732;SDS011;41637;52.364;9.910;2023-04-02T19:17:12;4.30;;;1.70;;
55732;SDS011;41637;52.364;9.910;2023-04-02T19:33:49;3.90;;;2.00;;
55732;SDS011;41637;52.364;9.910;2023-04-02T19:36:39;3.40;;;1.40;;
55732;SDS011;41637;52.364;9.910;2023-04-02T19:47:47;9.20;;;3.10;;
55732;SDS011;41637;52.364;9.910;2023-04-02T19:50:14;7.40;;;2.80;;
55732;SDS011;41637;52.364;9.910;2023-04-02T19:52:41;8.10;;;3.10;;
55732;SDS011;41637;52.364;9.910;2023-04-02T19:55:07;8.50;;;2.90;;
55732;SDS011;41637;52.364;9.910;2023-04-02T19:57:34;6.50;;;2.30;;
55732;SDS011;41637;52.364;9.910;2023-04-02T20:00:01;9.20;;;3.10;;
55732;SDS011;41637;52.364;9.910;2023-04-02T20:02:29;10.20;;;3.30;;
55732;SDS011;41637;52.364;9.910;2023-04-02T20:04:55;9.00;;;3.20;;
55732;SDS011;41637;52.364;9.910;2023-04-02T20:07:22;9.10;;;3.30;;
55732;SDS011;41637;52.364;9.910;2023-04-02T20:09:48;8.20;;;3.20;;
55732;SDS011;41637;52.364;9.910;2023-04-02T20:12:15;7.10;;;2.60;;
55732;SDS011;41637;52.364;9.910;2023-04-02T20:14:42;9.70;;;3.00;;
55732;SDS011;41637;52.364;9.910;2023-04-02T20:17:08;7.90;;;2.80;;
55732;SDS011;41637;52.364;9.910;2023-04-02T20:19:35;6.30;;;2.40;;
55732;SDS011;41637;52.364;9.910;2023-04-02T20:22:02;4.10;;;1.90;;
55732;SDS011;41637;52.364;9.910;2023-04-02T20:24:28;4.00;;;1.70;;
55732;SDS011;41637;52.364;9.910;2023-04-02T20:26:55;3.70;;;1.80;;
55732;SDS011;41637;52.364;9.910;2023-04-02T20:29:22;6.40;;;2.00;;
55732;SDS011;41637;52.364;9.910;2023-04-02T20:31:52;5.00;;;2.00;;
55732;SDS011;41637;52.364;9.910;2023-04-02T20:34:19;6.00;;;2.60;;
55732;SDS011;41637;52.364;9.910;2023-04-02T20:36:46;5.90;;;2.70;;
55732;SDS011;41637;52.364;9.910;2023-04-02T20:39:13;5.90;;;2.40;;
55732;SDS011;41637;52.364;9.910;2023-04-02T20:41:44;5.50;;;2.40;;
55732;SDS011;41637;52.364;9.910;2023-04-02T20:44:12;4.30;;;1.30;;
55732;SDS011;41637;52.364;9.910;2023-04-02T20:46:39;5.60;;;1.60;;
55732;SDS011;41637;52.364;9.910;2023-04-02T20:49:06;5.30;;;1.50;;
55732;SDS011;41637;52.364;9.910;2023-04-02T20:51:32;3.10;;;1.10;;
55732;SDS011;41637;52.364;9.910;2023-04-02T20:53:59;5.00;;;1.30;;
55732;SDS011;41637;52.364;9.910;2023-04-02T20:56:26;3.70;;;1.20;;
55732;SDS011;41637;52.364;9.910;2023-04-02T20:58:53;3.10;;;1.00;;
55732;SDS011;41637;52.364;9.910;2023-04-02T21:01:23;3.50;;;1.20;;